Time;durP1;ratioP1;P1;durP2;ratioP2;P2;SDS_P1;SDS_P2;PMS_P1;PMS_P2;Temp;Humidity;BMP_temperature;BMP_pressure;BME280_temperature;BME280_humidity;BME280_pressure;Samples;Min_cycle;Max_cycle;Signal;HPM_P1;HPM_P2
2022/02/20 00:01:37;;;;;;;62.00;3.40;;;;;;;;;;5073671;28;20243;-70
2022/02/20 00:04:05;;;;;;;60.45;2.80;;;;;;;;;;5073780;28;20312;-70
2022/02/20 00:06:32;;;;;;;58.72;2.70;;;;;;;;;;5073624;28;20241;-70
2022/02/20 00:08:59;;;;;;;58.63;3.03;;;;;;;;;;5073661;28;20232;-70
2022/02/20 00:11:28;;;;;;;64.63;3.45;;;;;;;;;;5073655;28;20208;-69
2022/02/20 00:13:55;;;;;;;62.20;3.20;;;;;;;;;;5073789;28;20248;-69
2022/02/20 00:16:22;;;;;;;60.10;3.20;;;;;;;;;;5073315;28;20697;-69
2022/02/20 00:18:49;;;;;;;60.90;2.95;;;;;;;;;;5073342;28;20291;-69
2022/02/20 00:21:16;;;;;;;63.38;3.78;;;;;;;;;;5073468;28;20213;-69
2022/02/20 00:23:44;;;;;;;59.40;3.00;;;;;;;;;;5073238;28;20250;-72
2022/02/20 00:26:11;;;;;;;60.78;3.22;;;;;;;;;;5072842;28;20287;-70
2022/02/20 00:28:40;;;;;;;62.75;2.75;;;;;;;;;;5072813;28;20312;-70
2022/02/20 00:31:07;;;;;;;59.75;3.08;;;;;;;;;;5073112;28;20266;-70
2022/02/20 00:33:34;;;;;;;61.72;3.20;;;;;;;;;;5073138;28;20283;-71
2022/02/20 00:36:01;;;;;;;59.60;3.30;;;;;;;;;;5073064;28;20320;-69
2022/02/20 00:38:29;;;;;;;63.78;3.60;;;;;;;;;;5072759;28;20591;-69
2022/02/20 00:40:56;;;;;;;60.00;3.05;;;;;;;;;;5072842;28;20212;-69
2022/02/20 00:43:24;;;;;;;60.80;3.20;;;;;;;;;;5072798;28;20228;-71
2022/02/20 00:45:53;;;;;;;59.85;3.00;;;;;;;;;;5072943;28;20221;-70
2022/02/20 00:48:21;;;;;;;59.35;3.08;;;;;;;;;;5072672;28;20296;-70
2022/02/20 00:50:48;;;;;;;65.40;4.10;;;;;;;;;;5072797;28;20648;-69
2022/02/20 00:53:15;;;;;;;61.53;2.90;;;;;;;;;;5072616;28;20558;-70
2022/02/20 00:55:42;;;;;;;60.22;3.20;;;;;;;;;;5072345;28;20233;-72
2022/02/20 00:58:09;;;;;;;62.25;3.28;;;;;;;;;;5072151;28;20219;-69
2022/02/20 01:00:37;;;;;;;64.35;3.80;;;;;;;;;;5072559;28;20266;-71
2022/02/20 01:03:06;;;;;;;58.80;3.30;;;;;;;;;;5072545;28;20588;-70
2022/02/20 01:05:33;;;;;;;61.25;3.08;;;;;;;;;;5072166;28;20224;-70
2022/02/20 01:08:00;;;;;;;63.25;3.10;;;;;;;;;;5072142;28;20205;-69
2022/02/20 01:10:28;;;;;;;60.63;3.22;;;;;;;;;;5072509;28;20209;-69
2022/02/20 01:12:55;;;;;;;61.92;3.45;;;;;;;;;;5072479;28;20204;-69
2022/02/20 01:15:22;;;;;;;60.17;2.92;;;;;;;;;;5072169;28;20226;-69
2022/02/20 01:17:49;;;;;;;62.97;3.30;;;;;;;;;;5071967;28;20727;-69
2022/02/20 01:20:18;;;;;;;58.40;2.88;;;;;;;;;;5072260;28;20291;-69
2022/02/20 01:22:45;;;;;;;62.47;3.53;;;;;;;;;;5072153;28;20208;-71
2022/02/20 01:25:12;;;;;;;62.72;3.20;;;;;;;;;;5072074;28;20257;-69
2022/02/20 01:27:39;;;;;;;62.38;3.10;;;;;;;;;;5071778;28;20197;-70
2022/02/20 01:30:07;;;;;;;60.65;2.92;;;;;;;;;;5072182;28;20308;-71
2022/02/20 01:32:34;;;;;;;60.05;3.10;;;;;;;;;;5072208;28;20248;-69
2022/02/20 01:35:02;;;;;;;58.65;2.97;;;;;;;;;;5072084;28;20224;-70
2022/02/20 01:37:31;;;;;;;62.63;3.25;;;;;;;;;;5070611;28;20479;-70
2022/02/20 01:39:58;;;;;;;59.95;2.90;;;;;;;;;;5071964;28;20206;-70
2022/02/20 01:42:25;;;;;;;58.75;2.90;;;;;;;;;;5072073;28;20208;-69
2022/02/20 01:44:52;;;;;;;62.55;3.08;;;;;;;;;;5071774;28;20312;-69
2022/02/20 01:47:19;;;;;;;65.35;3.22;;;;;;;;;;5071545;28;20205;-70
2022/02/20 01:49:46;;;;;;;60.42;3.03;;;;;;;;;;5071820;28;20300;-70
2022/02/20 01:52:14;;;;;;;60.10;3.63;;;;;;;;;;5071746;28;20303;-69
2022/02/20 01:54:43;;;;;;;58.97;2.85;;;;;;;;;;5071920;28;20225;-70
2022/02/20 01:57:10;;;;;;;59.30;3.10;;;;;;;;;;5071598;28;20231;-72
2022/02/20 01:59:38;;;;;;;62.30;2.83;;;;;;;;;;5071955;28;20219;-70
2022/02/20 02:02:05;;;;;;;59.75;2.90;;;;;;;;;;5071754;28;20204;-69
2022/02/20 02:04:32;;;;;;;59.25;3.50;;;;;;;;;;5071476;28;20221;-69
2022/02/20 02:06:59;;;;;;;59.67;3.20;;;;;;;;;;5071861;28;20292;-69
2022/02/20 02:09:26;;;;;;;63.95;3.20;;;;;;;;;;5071924;28;20305;-71
2022/02/20 02:11:55;;;;;;;61.28;3.40;;;;;;;;;;5071766;28;20297;-70
2022/02/20 02:14:22;;;;;;;61.90;3.47;;;;;;;;;;5071440;28;20315;-69
2022/02/20 02:16:49;;;;;;;60.83;3.20;;;;;;;;;;5071482;28;20229;-69
2022/02/20 02:19:16;;;;;;;62.58;3.22;;;;;;;;;;5071323;28;20206;-70
2022/02/20 02:21:43;;;;;;;60.72;2.90;;;;;;;;;;5071859;28;20288;-70
2022/02/20 02:24:12;;;;;;;60.05;3.38;;;;;;;;;;5071550;28;20656;-70
2022/02/20 02:26:39;;;;;;;60.30;3.05;;;;;;;;;;5072064;28;20289;-70
2022/02/20 02:29:07;;;;;;;60.67;3.15;;;;;;;;;;5071179;28;20303;-69
2022/02/20 02:31:34;;;;;;;58.50;2.70;;;;;;;;;;5071380;28;20588;-69
2022/02/20 02:34:01;;;;;;;59.63;3.20;;;;;;;;;;5071171;28;20731;-72
2022/02/20 02:36:28;;;;;;;60.65;3.40;;;;;;;;;;5071483;28;20229;-69
2022/02/20 02:38:55;;;;;;;59.72;2.80;;;;;;;;;;5071064;28;20296;-71
2022/02/20 02:41:24;;;;;;;59.20;3.10;;;;;;;;;;5071413;28;20205;-69
2022/02/20 02:43:51;;;;;;;59.50;2.80;;;;;;;;;;5069425;28;20208;-69
2022/02/20 02:46:20;;;;;;;58.88;3.22;;;;;;;;;;5071268;28;20213;-69
2022/02/20 02:48:48;;;;;;;62.95;3.20;;;;;;;;;;5072344;28;20665;-70
2022/02/20 02:51:16;;;;;;;61.95;2.75;;;;;;;;;;5075075;28;20205;-72
2022/02/20 02:53:43;;;;;;;63.10;3.20;;;;;;;;;;5074637;28;20300;-70
2022/02/20 02:56:10;;;;;;;59.33;2.80;;;;;;;;;;5075114;28;20221;-70
2022/02/20 02:58:38;;;;;;;60.92;2.80;;;;;;;;;;5074877;28;20665;-71
2022/02/20 03:01:06;;;;;;;59.28;2.88;;;;;;;;;;5074838;28;20208;-69
2022/02/20 03:03:33;;;;;;;58.75;2.90;;;;;;;;;;5074766;28;20228;-69
2022/02/20 03:06:00;;;;;;;61.80;3.08;;;;;;;;;;5075118;28;20201;-70
2022/02/20 03:08:28;;;;;;;59.50;2.83;;;;;;;;;;5074468;28;20693;-69
2022/02/20 03:10:56;;;;;;;60.10;3.10;;;;;;;;;;5074739;28;20209;-69
2022/02/20 03:13:24;;;;;;;58.47;2.67;;;;;;;;;;5074585;28;20205;-69
2022/02/20 03:15:52;;;;;;;61.25;3.10;;;;;;;;;;5074729;28;20226;-70
2022/02/20 03:18:19;;;;;;;61.20;2.80;;;;;;;;;;5074370;28;20296;-69
2022/02/20 03:20:46;;;;;;;59.50;3.33;;;;;;;;;;5074541;28;20584;-70
2022/02/20 03:23:13;;;;;;;58.60;3.10;;;;;;;;;;5074408;28;20205;-70
2022/02/20 03:25:41;;;;;;;62.30;2.90;;;;;;;;;;5074595;28;20220;-70
2022/02/20 03:28:08;;;;;;;62.60;2.97;;;;;;;;;;5074299;28;20297;-70
2022/02/20 03:30:35;;;;;;;67.47;3.47;;;;;;;;;;5074363;28;20211;-69
2022/02/20 03:33:04;;;;;;;59.53;2.50;;;;;;;;;;5074186;28;20205;-69
2022/02/20 03:35:31;;;;;;;58.50;3.00;;;;;;;;;;5074132;28;20232;-68
2022/02/20 03:37:58;;;;;;;60.75;3.05;;;;;;;;;;5074208;28;20240;-69
2022/02/20 03:40:25;;;;;;;61.60;3.45;;;;;;;;;;5074191;28;20205;-70
2022/02/20 03:42:52;;;;;;;62.03;3.22;;;;;;;;;;5074143;28;20208;-70
2022/02/20 03:45:20;;;;;;;58.92;2.80;;;;;;;;;;5074028;28;20226;-69
2022/02/20 03:47:47;;;;;;;59.03;2.60;;;;;;;;;;5073914;28;20647;-71
2022/02/20 03:50:16;;;;;;;59.53;4.15;;;;;;;;;;5073927;28;20304;-69
2022/02/20 03:52:44;;;;;;;61.13;3.10;;;;;;;;;;5073962;28;20301;-72
2022/02/20 03:55:12;;;;;;;58.35;2.70;;;;;;;;;;5073711;28;20228;-69
2022/02/20 03:57:39;;;;;;;59.30;2.85;;;;;;;;;;5073642;28;20319;-70
2022/02/20 04:00:10;;;;;;;61.60;2.70;;;;;;;;;;5072849;28;20216;-70
2022/02/20 04:02:37;;;;;;;62.28;2.90;;;;;;;;;;5073691;28;20205;-70
2022/02/20 04:05:05;;;;;;;60.00;3.00;;;;;;;;;;5073955;28;20225;-71
2022/02/20 04:07:33;;;;;;;61.70;2.80;;;;;;;;;;5073838;28;20196;-70
2022/02/20 04:10:00;;;;;;;59.60;2.97;;;;;;;;;;5073808;28;20209;-69
2022/02/20 04:12:29;;;;;;;58.60;3.15;;;;;;;;;;5073589;28;20209;-70
2022/02/20 04:14:56;;;;;;;59.30;2.90;;;;;;;;;;5073718;28;20225;-70
2022/02/20 04:17:24;;;;;;;62.55;3.22;;;;;;;;;;5073177;28;20231;-69
2022/02/20 04:19:51;;;;;;;60.78;3.15;;;;;;;;;;5073838;28;20200;-70
2022/02/20 04:22:19;;;;;;;59.17;3.08;;;;;;;;;;5073728;28;20209;-69
2022/02/20 04:24:47;;;;;;;58.85;2.90;;;;;;;;;;5073497;28;20611;-70
2022/02/20 04:27:15;;;;;;;60.40;3.17;;;;;;;;;;5073227;28;20198;-70
2022/02/20 04:29:42;;;;;;;60.05;3.00;;;;;;;;;;5073174;28;20304;-70
2022/02/20 04:32:10;;;;;;;57.97;2.70;;;;;;;;;;5073395;28;20297;-69
2022/02/20 04:34:37;;;;;;;57.95;2.42;;;;;;;;;;5072904;28;20230;-69
2022/02/20 04:37:04;;;;;;;58.38;2.60;;;;;;;;;;5073240;28;20315;-68
2022/02/20 04:39:31;;;;;;;58.58;2.60;;;;;;;;;;5073025;28;20209;-69
2022/02/20 04:42:00;;;;;;;59.83;2.92;;;;;;;;;;5073014;28;20211;-71
2022/02/20 04:44:27;;;;;;;57.97;2.63;;;;;;;;;;5072928;28;20264;-69
2022/02/20 04:46:54;;;;;;;58.33;2.60;;;;;;;;;;5073044;28;20204;-69
2022/02/20 04:49:21;;;;;;;58.10;2.45;;;;;;;;;;5072720;28;20201;-69
2022/02/20 04:51:49;;;;;;;58.47;2.60;;;;;;;;;;5073034;28;20685;-69
2022/02/20 04:54:16;;;;;;;59.13;2.60;;;;;;;;;;5072709;28;20225;-69
2022/02/20 04:56:43;;;;;;;62.53;2.70;;;;;;;;;;5072717;28;20246;-69
2022/02/20 04:59:12;;;;;;;58.08;2.67;;;;;;;;;;5072250;28;20248;-69
2022/02/20 05:01:39;;;;;;;58.35;2.78;;;;;;;;;;5072737;28;20391;-68
2022/02/20 05:04:06;;;;;;;59.85;2.83;;;;;;;;;;5072461;28;20670;-69
2022/02/20 05:06:34;;;;;;;60.35;2.90;;;;;;;;;;5072536;28;20296;-69
2022/02/20 05:09:01;;;;;;;58.30;2.53;;;;;;;;;;5072411;28;20210;-68
2022/02/20 05:11:29;;;;;;;59.08;2.53;;;;;;;;;;5072031;28;20201;-69
2022/02/20 05:13:58;;;;;;;58.58;2.40;;;;;;;;;;5072163;28;20224;-69
2022/02/20 05:16:27;;;;;;;59.30;2.70;;;;;;;;;;5072504;28;20594;-69
2022/02/20 05:18:55;;;;;;;58.45;2.53;;;;;;;;;;5072086;28;20231;-68
2022/02/20 05:21:22;;;;;;;58.17;2.70;;;;;;;;;;5072421;28;20295;-69
2022/02/20 05:23:49;;;;;;;58.38;2.78;;;;;;;;;;5072044;28;20210;-69
2022/02/20 05:26:16;;;;;;;59.50;2.80;;;;;;;;;;5072129;28;20296;-69
2022/02/20 05:28:43;;;;;;;58.10;2.50;;;;;;;;;;5071898;28;20212;-69
2022/02/20 05:31:11;;;;;;;57.90;2.70;;;;;;;;;;5072050;28;20207;-69
2022/02/20 05:33:40;;;;;;;59.22;3.15;;;;;;;;;;5071953;28;20299;-69
2022/02/20 05:36:09;;;;;;;60.88;2.60;;;;;;;;;;5071996;28;20209;-69
2022/02/20 05:38:36;;;;;;;61.30;2.72;;;;;;;;;;5071599;28;20225;-71
2022/02/20 05:41:03;;;;;;;58.13;2.63;;;;;;;;;;5072101;28;20379;-69
2022/02/20 05:43:30;;;;;;;59.10;2.70;;;;;;;;;;5071911;28;20257;-69
2022/02/20 05:45:57;;;;;;;58.70;3.25;;;;;;;;;;5071771;28;20227;-68
2022/02/20 05:48:25;;;;;;;58.30;2.50;;;;;;;;;;5071782;28;20226;-69
2022/02/20 05:50:53;;;;;;;58.05;2.95;;;;;;;;;;5071795;28;20213;-69
2022/02/20 05:53:20;;;;;;;57.65;2.45;;;;;;;;;;5071727;28;20669;-71
2022/02/20 05:55:48;;;;;;;58.10;2.50;;;;;;;;;;5071912;28;20227;-69
2022/02/20 05:58:16;;;;;;;57.80;2.45;;;;;;;;;;5071582;28;20243;-68
2022/02/20 06:00:43;;;;;;;58.00;2.60;;;;;;;;;;5071907;28;20601;-69
2022/02/20 06:03:10;;;;;;;59.40;3.22;;;;;;;;;;5071601;28;20255;-71
2022/02/20 06:05:38;;;;;;;58.88;3.20;;;;;;;;;;5071561;28;20312;-69
2022/02/20 06:08:09;;;;;;;60.13;3.53;;;;;;;;;;5071581;28;20298;-70
2022/02/20 06:10:36;;;;;;;60.05;2.60;;;;;;;;;;5071960;28;20755;-69
2022/02/20 06:13:03;;;;;;;58.53;2.78;;;;;;;;;;5071552;28;20212;-69
2022/02/20 06:15:31;;;;;;;58.63;2.95;;;;;;;;;;5071534;28;20228;-69
2022/02/20 06:17:58;;;;;;;60.08;2.75;;;;;;;;;;5071058;28;20713;-69
2022/02/20 06:20:25;;;;;;;58.25;2.60;;;;;;;;;;5071786;28;20584;-70
2022/02/20 06:22:53;;;;;;;58.85;3.05;;;;;;;;;;5071617;28;20744;-69
2022/02/20 06:25:22;;;;;;;60.38;2.83;;;;;;;;;;5075767;28;20224;-69
2022/02/20 06:27:49;;;;;;;58.58;2.85;;;;;;;;;;5075294;28;20207;-69
2022/02/20 06:30:16;;;;;;;58.15;2.42;;;;;;;;;;5075732;28;20240;-69
2022/02/20 06:32:43;;;;;;;58.40;2.65;;;;;;;;;;5075271;28;20209;-69
2022/02/20 06:35:10;;;;;;;58.17;2.63;;;;;;;;;;5075348;28;20263;-69
2022/02/20 06:37:37;;;;;;;58.60;2.70;;;;;;;;;;5074961;28;20221;-70
2022/02/20 06:40:05;;;;;;;58.03;2.70;;;;;;;;;;5075512;28;20303;-69
2022/02/20 06:42:33;;;;;;;58.17;2.53;;;;;;;;;;5075127;28;20297;-69
2022/02/20 06:45:01;;;;;;;61.22;2.67;;;;;;;;;;5074980;28;20239;-70
2022/02/20 06:47:28;;;;;;;58.67;2.50;;;;;;;;;;5075158;28;20292;-70
2022/02/20 06:49:55;;;;;;;60.75;3.25;;;;;;;;;;5075330;28;20584;-69
2022/02/20 06:52:22;;;;;;;61.72;2.80;;;;;;;;;;5074997;28;20742;-69
2022/02/20 06:54:49;;;;;;;58.70;2.67;;;;;;;;;;5075077;28;20238;-69
2022/02/20 06:57:17;;;;;;;57.92;2.55;;;;;;;;;;5074687;28;20583;-69
2022/02/20 06:59:45;;;;;;;57.60;2.30;;;;;;;;;;5074865;28;20688;-71
2022/02/20 07:02:12;;;;;;;58.17;2.58;;;;;;;;;;5075105;28;20205;-69
2022/02/20 07:04:40;;;;;;;58.67;2.53;;;;;;;;;;5074939;28;20256;-69
2022/02/20 07:07:07;;;;;;;58.13;2.47;;;;;;;;;;5074603;28;20201;-71
2022/02/20 07:09:34;;;;;;;58.30;2.70;;;;;;;;;;5074714;28;20207;-70
2022/02/20 07:12:01;;;;;;;57.75;2.45;;;;;;;;;;5074612;28;20227;-69
2022/02/20 07:14:28;;;;;;;57.83;2.45;;;;;;;;;;5074551;28;20228;-69
2022/02/20 07:16:57;;;;;;;59.13;2.72;;;;;;;;;;5074617;28;20304;-69
2022/02/20 07:19:24;;;;;;;57.80;2.50;;;;;;;;;;5074207;28;20225;-69
2022/02/20 07:21:51;;;;;;;59.55;2.70;;;;;;;;;;5074561;28;20279;-69
2022/02/20 07:24:19;;;;;;;57.78;2.53;;;;;;;;;;5074472;28;20221;-69
2022/02/20 07:26:47;;;;;;;57.95;2.30;;;;;;;;;;5074362;28;20688;-69
2022/02/20 07:29:14;;;;;;;57.78;2.30;;;;;;;;;;5074127;28;20217;-69
2022/02/20 07:31:42;;;;;;;58.10;2.50;;;;;;;;;;5074540;28;20209;-69
2022/02/20 07:34:10;;;;;;;58.47;2.40;;;;;;;;;;5074207;28;20232;-71
2022/02/20 07:36:41;;;;;;;57.90;2.42;;;;;;;;;;5074316;28;20206;-69
2022/02/20 07:39:08;;;;;;;59.35;2.50;;;;;;;;;;5073827;28;20233;-68
2022/02/20 07:41:35;;;;;;;57.95;2.83;;;;;;;;;;5074318;28;20669;-70
2022/02/20 07:44:03;;;;;;;58.10;2.08;;;;;;;;;;5073907;28;20257;-68
2022/02/20 07:46:30;;;;;;;58.20;2.53;;;;;;;;;;5074246;28;20289;-69
2022/02/20 07:48:58;;;;;;;64.35;2.60;;;;;;;;;;5073963;28;20289;-69
2022/02/20 07:51:27;;;;;;;57.83;2.58;;;;;;;;;;5074044;28;20207;-71
2022/02/20 07:53:55;;;;;;;58.00;2.60;;;;;;;;;;5073430;28;20218;-69
2022/02/20 07:56:22;;;;;;;58.20;2.50;;;;;;;;;;5073969;28;20653;-69
2022/02/20 07:58:49;;;;;;;58.10;2.27;;;;;;;;;;5072866;28;20942;-70
2022/02/20 08:01:16;;;;;;;58.30;2.80;;;;;;;;;;5073882;28;20530;-70
2022/02/20 08:03:44;;;;;;;57.75;2.40;;;;;;;;;;5073606;28;20304;-69
2022/02/20 08:06:11;;;;;;;59.75;2.58;;;;;;;;;;5073981;28;20209;-69
2022/02/20 08:08:39;;;;;;;58.17;2.50;;;;;;;;;;5073401;28;20208;-70
2022/02/20 08:11:06;;;;;;;59.70;2.30;;;;;;;;;;5073902;28;20208;-72
2022/02/20 08:13:34;;;;;;;58.70;2.43;;;;;;;;;;5073712;28;20953;-69
2022/02/20 08:16:01;;;;;;;57.95;2.50;;;;;;;;;;5073667;28;20544;-68
2022/02/20 08:18:28;;;;;;;60.42;2.50;;;;;;;;;;5073289;28;20312;-70
2022/02/20 08:20:55;;;;;;;57.97;2.45;;;;;;;;;;5073516;28;20213;-70
2022/02/20 08:23:22;;;;;;;58.58;2.70;;;;;;;;;;5073603;28;20208;-70
2022/02/20 08:25:51;;;;;;;58.90;2.70;;;;;;;;;;5073617;28;20663;-69
2022/02/20 08:28:18;;;;;;;57.60;2.33;;;;;;;;;;5073385;28;21036;-70
2022/02/20 08:30:45;;;;;;;59.13;2.70;;;;;;;;;;5073393;28;20452;-70
2022/02/20 08:33:12;;;;;;;57.83;2.80;;;;;;;;;;5085681;28;20455;-69
2022/02/20 08:35:39;;;;;;;59.37;3.33;;;;;;;;;;5092520;28;20486;-69
2022/02/20 08:38:08;;;;;;;58.30;2.90;;;;;;;;;;5093031;28;20566;-70
2022/02/20 08:40:39;;;;;;;58.67;2.90;;;;;;;;;;5091190;28;20482;-69
2022/02/20 08:43:08;;;;;;;58.13;2.73;;;;;;;;;;5093393;28;20456;-69
2022/02/20 08:45:35;;;;;;;58.80;3.00;;;;;;;;;;5092965;28;20503;-70
2022/02/20 08:48:03;;;;;;;59.77;2.73;;;;;;;;;;5092324;28;20818;-69
2022/02/20 08:50:31;;;;;;;58.13;2.70;;;;;;;;;;5093036;28;20543;-69
2022/02/20 08:52:58;;;;;;;59.70;3.13;;;;;;;;;;5092995;28;20453;-69
2022/02/20 08:55:25;;;;;;;58.33;3.00;;;;;;;;;;5092918;28;20915;-69
2022/02/20 08:57:52;;;;;;;61.80;3.30;;;;;;;;;;5092148;28;20456;-69
2022/02/20 09:00:21;;;;;;;58.40;2.60;;;;;;;;;;5092996;28;20465;-71
2022/02/20 09:02:48;;;;;;;59.47;2.63;;;;;;;;;;5092599;28;20486;-69
2022/02/20 09:05:15;;;;;;;61.27;2.70;;;;;;;;;;5092740;28;20500;-69
2022/02/20 09:07:43;;;;;;;58.47;2.70;;;;;;;;;;5092572;28;20477;-69
2022/02/20 09:10:10;;;;;;;58.37;2.50;;;;;;;;;;5092613;28;20449;-69
2022/02/20 09:12:37;;;;;;;60.77;2.70;;;;;;;;;;5091121;28;20453;-70
2022/02/20 09:15:06;;;;;;;57.50;2.43;;;;;;;;;;5092461;28;20465;-69
2022/02/20 09:17:34;;;;;;;58.03;2.40;;;;;;;;;;5092541;28;20531;-70
2022/02/20 09:20:01;;;;;;;60.10;2.60;;;;;;;;;;5092440;28;21024;-69
2022/02/20 09:22:29;;;;;;;58.87;2.70;;;;;;;;;;5092609;28;20456;-69
2022/02/20 09:24:56;;;;;;;59.30;2.50;;;;;;;;;;5092411;28;20464;-71
2022/02/20 09:27:23;;;;;;;59.40;2.50;;;;;;;;;;5092142;28;20543;-70
2022/02/20 09:29:51;;;;;;;57.73;2.70;;;;;;;;;;5092147;28;20453;-70
2022/02/20 09:32:21;;;;;;;58.20;2.90;;;;;;;;;;5092433;28;20449;-70
2022/02/20 09:34:49;;;;;;;57.80;2.40;;;;;;;;;;5092294;28;20989;-70
2022/02/20 09:37:16;;;;;;;59.17;2.70;;;;;;;;;;5092137;28;20540;-70
2022/02/20 09:39:44;;;;;;;58.97;2.70;;;;;;;;;;5092135;28;20485;-70
2022/02/20 09:42:12;;;;;;;58.20;2.70;;;;;;;;;;5091724;28;20539;-70
2022/02/20 09:44:39;;;;;;;58.17;2.23;;;;;;;;;;5079201;28;20569;-71
2022/02/20 09:47:07;;;;;;;58.40;2.80;;;;;;;;;;5072115;28;20865;-70
2022/02/20 09:49:34;;;;;;;57.90;2.57;;;;;;;;;;5071725;28;20488;-70
2022/02/20 09:52:03;;;;;;;58.30;2.43;;;;;;;;;;5071839;28;20531;-70
2022/02/20 09:54:30;;;;;;;58.20;2.37;;;;;;;;;;5071596;28;20471;-70
2022/02/20 09:56:57;;;;;;;57.90;2.63;;;;;;;;;;5071851;28;20804;-70
2022/02/20 09:59:25;;;;;;;58.60;2.80;;;;;;;;;;5070911;28;20934;-71
2022/02/20 10:02:03;;;;;;;58.03;2.67;;;;;;;;;;5071849;28;20833;-70
2022/02/20 10:04:36;;;;;;;57.50;2.27;;;;;;;;;;5071751;28;20474;-70
2022/02/20 10:07:05;;;;;;;58.87;2.70;;;;;;;;;;5071546;28;20449;-70
2022/02/20 10:09:37;;;;;;;59.30;2.57;;;;;;;;;;5071662;28;20454;-70
2022/02/20 10:12:18;;;;;;;57.43;2.30;;;;;;;;;;5071898;28;20445;-70
2022/02/20 10:14:45;;;;;;;57.70;2.50;;;;;;;;;;5071705;28;20480;-71
2022/02/20 10:17:13;;;;;;;58.07;2.67;;;;;;;;;;5087446;28;20461;-70
2022/02/20 10:19:51;;;;;;;60.00;3.10;;;;;;;;;;5091559;28;20517;-70
2022/02/20 10:22:26;;;;;;;58.40;2.63;;;;;;;;;;5091808;28;20528;-71
2022/02/20 10:25:01;;;;;;;58.37;2.43;;;;;;;;;;5091721;28;20469;-70
2022/02/20 10:27:28;;;;;;;58.20;2.63;;;;;;;;;;5091225;28;20457;-70
2022/02/20 10:30:10;;;;;;;58.97;2.60;;;;;;;;;;5091815;28;20903;-70
2022/02/20 10:32:37;;;;;;;58.40;2.53;;;;;;;;;;5091912;28;20460;-70
2022/02/20 10:35:07;;;;;;;58.07;2.67;;;;;;;;;;5091569;28;20480;-71
2022/02/20 10:37:35;;;;;;;58.80;2.60;;;;;;;;;;5091399;28;20451;-71
2022/02/20 10:40:02;;;;;;;58.57;2.87;;;;;;;;;;5091492;28;20516;-70
2022/02/20 10:42:30;;;;;;;58.37;2.40;;;;;;;;;;5091320;28;21094;-70
2022/02/20 10:44:59;;;;;;;59.00;3.00;;;;;;;;;;5091551;28;20469;-70
2022/02/20 10:47:26;;;;;;;57.97;2.57;;;;;;;;;;5089222;28;20463;-70
2022/02/20 10:49:54;;;;;;;57.53;2.43;;;;;;;;;;5091432;28;20528;-70
2022/02/20 10:52:22;;;;;;;57.97;2.50;;;;;;;;;;5091296;28;20532;-70
2022/02/20 10:55:04;;;;;;;57.93;2.70;;;;;;;;;;5091364;28;20561;-70
2022/02/20 10:57:35;;;;;;;57.43;2.50;;;;;;;;;;5091395;28;20454;-70
2022/02/20 11:00:28;;;;;;;62.60;2.67;;;;;;;;;;5089980;28;20536;-72
2022/02/20 11:03:08;;;;;;;58.47;2.57;;;;;;;;;;5089996;28;20204;-70
2022/02/20 11:05:35;;;;;;;57.70;2.43;;;;;;;;;;5091355;28;20464;-71
2022/02/20 11:08:03;;;;;;;57.70;2.40;;;;;;;;;;5091260;28;20529;-72
2022/02/20 11:10:32;;;;;;;57.90;2.57;;;;;;;;;;5092645;28;20865;-67
2022/02/20 11:12:59;;;;;;;60.30;2.50;;;;;;;;;;5094865;28;20880;-69
2022/02/20 11:15:28;;;;;;;58.00;2.60;;;;;;;;;;5095282;28;20476;-68
2022/02/20 11:17:56;;;;;;;59.60;2.60;;;;;;;;;;5094798;28;20444;-68
2022/02/20 11:20:23;;;;;;;58.07;2.50;;;;;;;;;;5095018;28;20481;-73
2022/02/20 11:22:52;;;;;;;57.63;2.33;;;;;;;;;;5094777;28;20532;-68
2022/02/20 11:25:21;;;;;;;58.00;2.43;;;;;;;;;;5094728;28;20503;-69
2022/02/20 11:27:50;;;;;;;57.47;2.40;;;;;;;;;;5093971;28;20447;-69
2022/02/20 11:30:17;;;;;;;57.80;2.30;;;;;;;;;;5079489;28;20454;-70
2022/02/20 11:32:45;;;;;;;57.40;2.30;;;;;;;;;;5074330;28;20542;-70
2022/02/20 11:35:13;;;;;;;57.80;2.60;;;;;;;;;;5074205;28;21064;-70
2022/02/20 11:37:50;;;;;;;57.77;2.40;;;;;;;;;;5074373;28;20502;-69
2022/02/20 11:40:17;;;;;;;57.70;2.47;;;;;;;;;;5074233;28;21013;-69
2022/02/20 11:43:11;;;;;;;57.77;2.27;;;;;;;;;;5074482;28;20447;-70
2022/02/20 11:46:01;;;;;;;57.77;2.50;;;;;;;;;;5074307;28;20881;-70
2022/02/20 11:48:28;;;;;;;58.90;2.50;;;;;;;;;;5073686;28;20456;-71
2022/02/20 11:51:11;;;;;;;57.57;2.30;;;;;;;;;;5073870;28;20947;-70
2022/02/20 11:53:38;;;;;;;58.27;2.70;;;;;;;;;;5074182;28;20488;-70
2022/02/20 11:56:06;;;;;;;58.73;2.70;;;;;;;;;;5073860;28;20947;-70
2022/02/20 11:58:35;;;;;;;57.97;2.50;;;;;;;;;;5073608;28;20530;-70
2022/02/20 12:01:07;;;;;;;57.67;2.33;;;;;;;;;;5076477;28;20580;-71
2022/02/20 12:03:34;;;;;;;57.77;2.50;;;;;;;;;;5094225;28;20544;-71
2022/02/20 12:06:20;;;;;;;58.50;2.50;;;;;;;;;;5094108;28;20529;-71
2022/02/20 12:08:48;;;;;;;58.60;2.60;;;;;;;;;;5093725;28;20820;-71
2022/02/20 12:11:18;;;;;;;57.93;2.53;;;;;;;;;;5093978;28;20460;-70
2022/02/20 12:13:47;;;;;;;58.93;2.80;;;;;;;;;;5093464;28;20872;-70
2022/02/20 12:16:21;;;;;;;57.80;2.50;;;;;;;;;;5093912;28;20447;-70
2022/02/20 12:19:07;;;;;;;57.57;2.43;;;;;;;;;;5093375;28;20451;-71
2022/02/20 12:21:34;;;;;;;59.40;2.70;;;;;;;;;;5092813;28;20456;-69
2022/02/20 12:24:15;;;;;;;59.77;2.60;;;;;;;;;;5093564;28;20914;-70
2022/02/20 12:26:46;;;;;;;58.23;2.67;;;;;;;;;;5093818;28;20452;-71
2022/02/20 12:29:16;;;;;;;58.80;2.77;;;;;;;;;;5093169;28;20558;-71
2022/02/20 12:32:02;;;;;;;58.30;2.80;;;;;;;;;;5093171;28;20456;-71
2022/02/20 12:34:48;;;;;;;57.87;2.47;;;;;;;;;;5091383;28;20466;-73
2022/02/20 12:37:16;;;;;;;62.03;2.70;;;;;;;;;;5093318;28;20525;-71
2022/02/20 12:39:43;;;;;;;57.47;2.60;;;;;;;;;;5093379;28;20478;-72
2022/02/20 12:42:11;;;;;;;57.67;2.50;;;;;;;;;;5093451;28;20446;-70
2022/02/20 12:44:42;;;;;;;58.00;2.53;;;;;;;;;;5093296;28;20465;-71
2022/02/20 12:47:10;;;;;;;58.50;2.57;;;;;;;;;;5092957;28;21017;-72
2022/02/20 12:49:41;;;;;;;57.70;2.47;;;;;;;;;;5093445;28;20456;-72
2022/02/20 12:52:08;;;;;;;58.40;2.60;;;;;;;;;;5093212;28;20524;-71
2022/02/20 12:54:36;;;;;;;57.77;2.60;;;;;;;;;;5092881;28;20470;-72
2022/02/20 12:57:03;;;;;;;58.20;2.70;;;;;;;;;;5092946;28;20894;-72
2022/02/20 12:59:31;;;;;;;57.50;2.37;;;;;;;;;;5093179;28;20481;-71
2022/02/20 13:02:04;;;;;;;58.50;2.73;;;;;;;;;;5093298;28;20446;-69
2022/02/20 13:04:31;;;;;;;57.80;2.40;;;;;;;;;;5091478;28;20470;-70
2022/02/20 13:07:01;;;;;;;57.50;2.60;;;;;;;;;;5084285;28;20443;-71
2022/02/20 13:09:30;;;;;;;58.00;2.60;;;;;;;;;;5072298;28;20526;-69
2022/02/20 13:12:13;;;;;;;57.97;2.80;;;;;;;;;;5072362;28;20799;-69
2022/02/20 13:14:40;;;;;;;59.37;2.70;;;;;;;;;;5072248;28;20473;-72
2022/02/20 13:17:08;;;;;;;57.90;2.37;;;;;;;;;;5072268;28;20447;-69
2022/02/20 13:19:36;;;;;;;57.90;2.60;;;;;;;;;;5072480;28;20505;-70
2022/02/20 13:22:12;;;;;;;58.17;2.43;;;;;;;;;;5072356;28;20454;-70
2022/02/20 13:24:57;;;;;;;58.57;2.77;;;;;;;;;;5072038;28;20463;-69
2022/02/20 13:27:26;;;;;;;57.77;2.70;;;;;;;;;;5072150;28;20447;-69
2022/02/20 13:29:53;;;;;;;57.40;2.40;;;;;;;;;;5072101;28;20459;-70
2022/02/20 13:32:23;;;;;;;59.50;2.80;;;;;;;;;;5071845;28;20539;-69
2022/02/20 13:34:57;;;;;;;58.50;2.77;;;;;;;;;;5072314;28;20466;-71
2022/02/20 13:37:24;;;;;;;58.07;2.80;;;;;;;;;;5076624;28;20879;-69
2022/02/20 13:39:52;;;;;;;58.00;2.50;;;;;;;;;;5092441;28;20561;-69
2022/02/20 13:42:19;;;;;;;58.10;2.80;;;;;;;;;;5092229;28;20902;-69
2022/02/20 13:44:46;;;;;;;57.97;2.60;;;;;;;;;;5092576;28;20894;-69
2022/02/20 13:47:14;;;;;;;57.97;2.70;;;;;;;;;;5092826;28;20530;-69
2022/02/20 13:49:48;;;;;;;57.67;2.80;;;;;;;;;;5092063;28;21025;-70
2022/02/20 13:52:23;;;;;;;57.97;2.60;;;;;;;;;;5092400;28;20537;-69
2022/02/20 13:54:50;;;;;;;58.70;2.70;;;;;;;;;;5103571;28;20464;-69
2022/02/20 13:57:25;;;;;;;58.20;2.90;;;;;;;;;;5104755;28;20982;-70
2022/02/20 13:59:52;;;;;;;57.77;2.70;;;;;;;;;;5103837;28;20506;-70
2022/02/20 14:02:19;;;;;;;59.70;2.70;;;;;;;;;;5105660;28;20449;-70
2022/02/20 14:04:48;;;;;;;57.57;2.53;;;;;;;;;;5105504;28;20462;-70
2022/02/20 14:07:17;;;;;;;57.77;2.70;;;;;;;;;;5105726;28;20476;-71
2022/02/20 14:09:44;;;;;;;59.30;2.53;;;;;;;;;;5104395;28;20510;-72
2022/02/20 14:12:19;;;;;;;57.60;2.50;;;;;;;;;;5105447;28;20548;-71
2022/02/20 14:15:00;;;;;;;59.50;2.90;;;;;;;;;;5104663;28;20453;-70
2022/02/20 14:17:42;;;;;;;58.63;2.60;;;;;;;;;;5105331;28;20829;-71
2022/02/20 14:20:12;;;;;;;58.00;2.60;;;;;;;;;;5102936;28;20543;-71
2022/02/20 14:22:39;;;;;;;57.80;2.70;;;;;;;;;;5106607;28;20438;-71
2022/02/20 14:25:08;;;;;;;57.77;2.63;;;;;;;;;;5106260;28;20442;-71
2022/02/20 14:27:35;;;;;;;58.00;2.53;;;;;;;;;;5105740;28;20525;-71
2022/02/20 14:30:02;;;;;;;57.90;2.50;;;;;;;;;;5105338;28;20450;-71
2022/02/20 14:32:31;;;;;;;59.57;2.80;;;;;;;;;;5105193;28;20450;-70
2022/02/20 14:34:58;;;;;;;58.60;2.63;;;;;;;;;;5104502;28;20475;-70
2022/02/20 14:37:35;;;;;;;57.80;2.60;;;;;;;;;;5104005;28;20505;-70
2022/02/20 14:40:03;;;;;;;57.90;2.40;;;;;;;;;;5104413;28;20557;-71